Time;durP1;ratioP1;P1;durP2;ratioP2;P2;SDS_P1;SDS_P2;PMS_P1;PMS_P2;Temp;Humidity;BMP_temperature;BMP_pressure;BME280_temperature;BME280_humidity;BME280_pressure;Samples;Min_cycle;Max_cycle;Signal;HPM_P1;HPM_P2
2021/05/20 00:01:21;;;;;;;12.23;9.73;;;10.60;99.90;;;;;;5063572;28;20214;-83
2021/05/20 00:03:50;;;;;;;13.60;9.97;;;10.70;99.90;;;;;;5047245;28;20226;-85
2021/05/20 00:06:19;;;;;;;12.87;10.53;;;10.70;99.90;;;;;;5059817;28;20205;-85
2021/05/20 00:08:48;;;;;;;13.97;11.00;;;10.80;99.90;;;;;;5070327;28;20198;-86
2021/05/20 00:11:20;;;;;;;12.40;9.73;;;10.70;99.90;;;;;;5057193;28;20214;-87
2021/05/20 00:13:52;;;;;;;13.63;10.03;;;10.70;99.90;;;;;;5066944;28;20308;-87
2021/05/20 00:16:28;;;;;;;13.73;11.07;;;10.70;99.90;;;;;;5054124;28;20197;-87
2021/05/20 00:18:57;;;;;;;14.80;10.63;;;10.80;99.90;;;;;;5060796;28;20205;-86
2021/05/20 00:21:26;;;;;;;13.70;10.27;;;10.90;99.90;;;;;;5060449;28;20230;-86
2021/05/20 00:23:55;;;;;;;14.10;11.23;;;10.90;99.90;;;;;;5042988;28;20214;-86
2021/05/20 00:26:24;;;;;;;13.83;10.20;;;10.90;99.50;;;;;;5049993;28;20204;-86
2021/05/20 00:28:54;;;;;;;15.60;11.77;;;10.90;99.30;;;;;;5057112;28;20779;-85
2021/05/20 00:31:23;;;;;;;15.20;11.57;;;10.80;99.60;;;;;;5053391;28;20209;-84
2021/05/20 00:33:54;;;;;;;16.23;12.50;;;10.60;99.90;;;;;;5044786;28;20696;-84
2021/05/20 00:36:23;;;;;;;15.83;11.53;;;10.70;99.90;;;;;;5052590;28;20660;-86
2021/05/20 00:38:52;;;;;;;17.40;12.47;;;10.80;99.90;;;;;;5043414;28;20313;-84
2021/05/20 00:41:21;;;;;;;16.20;12.50;;;10.80;99.90;;;;;;5046478;28;20403;-85
2021/05/20 00:43:49;;;;;;;14.87;12.60;;;10.80;99.90;;;;;;5068132;28;20203;-85
2021/05/20 00:46:18;;;;;;;17.30;13.50;;;10.70;99.90;;;;;;5072022;28;20198;-85
2021/05/20 00:48:46;;;;;;;15.23;13.03;;;10.70;99.90;;;;;;5077051;28;20218;-84
2021/05/20 00:51:14;;;;;;;16.30;13.43;;;10.70;99.90;;;;;;5074628;28;20210;-86
2021/05/20 00:53:44;;;;;;;15.53;12.87;;;10.80;99.90;;;;;;5075257;28;20369;-85
2021/05/20 00:56:15;;;;;;;18.97;13.13;;;10.70;99.90;;;;;;5076378;28;20220;-86
2021/05/20 00:58:45;;;;;;;14.93;12.33;;;10.70;99.90;;;;;;5082070;28;20269;-83
2021/05/20 01:01:15;;;;;;;16.63;13.97;;;10.60;99.90;;;;;;5071332;28;20252;-86
2021/05/20 01:03:46;;;;;;;16.10;13.33;;;10.70;99.90;;;;;;5075663;28;20216;-86
2021/05/20 01:06:15;;;;;;;18.40;14.87;;;10.70;99.90;;;;;;5079233;28;20217;-85
2021/05/20 01:08:43;;;;;;;17.53;14.80;;;10.60;99.90;;;;;;5077083;28;20220;-86
2021/05/20 01:11:13;;;;;;;18.37;14.23;;;10.60;99.90;;;;;;5061603;28;20205;-86
2021/05/20 01:13:41;;;;;;;17.87;14.03;;;10.50;99.90;;;;;;5052666;28;20205;-85
2021/05/20 01:16:11;;;;;;;16.70;14.07;;;10.40;99.90;;;;;;5048262;28;20206;-85
2021/05/20 01:18:40;;;;;;;17.00;13.03;;;10.20;99.90;;;;;;5054587;28;20210;-85
2021/05/20 01:21:09;;;;;;;20.37;14.57;;;9.90;99.90;;;;;;5047337;28;20233;-86
2021/05/20 01:23:38;;;;;;;16.93;14.00;;;9.90;99.90;;;;;;5051460;28;20210;-87
2021/05/20 01:26:06;;;;;;;19.00;14.73;;;9.70;99.90;;;;;;5052811;28;20209;-86
2021/05/20 01:28:34;;;;;;;16.37;13.80;;;9.60;99.90;;;;;;5052494;28;20289;-86
2021/05/20 01:31:04;;;;;;;18.70;14.53;;;9.40;99.90;;;;;;5054796;28;20525;-85
2021/05/20 01:33:33;;;;;;;19.57;15.27;;;9.30;99.90;;;;;;5061093;28;20816;-85
2021/05/20 01:36:01;;;;;;;19.30;15.43;;;9.30;99.90;;;;;;5052737;28;20221;-86
2021/05/20 01:38:43;;;;;;;22.90;16.37;;;9.20;99.90;;;;;;5050415;28;20670;-88
2021/05/20 01:41:13;;;;;;;20.57;15.97;;;9.20;99.90;;;;;;5045054;28;20225;-85
2021/05/20 01:43:41;;;;;;;20.90;16.27;;;9.10;99.90;;;;;;5047822;28;20205;-86
2021/05/20 01:46:12;;;;;;;21.93;16.87;;;9.10;99.90;;;;;;5048962;28;20603;-87
2021/05/20 01:48:42;;;;;;;20.03;16.40;;;9.20;99.90;;;;;;5051366;28;20706;-86
2021/05/20 01:51:13;;;;;;;20.30;16.37;;;9.30;99.90;;;;;;5048409;28;20209;-85
2021/05/20 01:53:43;;;;;;;25.70;17.83;;;9.30;99.90;;;;;;5042088;28;20686;-84
2021/05/20 01:56:14;;;;;;;20.87;17.00;;;9.40;99.90;;;;;;5046756;28;20208;-86
2021/05/20 01:58:44;;;;;;;22.63;17.00;;;9.40;99.90;;;;;;5053454;28;20649;-86
2021/05/20 02:01:12;;;;;;;24.03;17.27;;;9.30;99.90;;;;;;5057781;28;20229;-87
2021/05/20 02:03:41;;;;;;;25.53;17.27;;;9.30;99.90;;;;;;5059884;28;20629;-86
2021/05/20 02:06:09;;;;;;;22.07;16.80;;;9.30;99.90;;;;;;5052123;28;20709;-86
2021/05/20 02:08:39;;;;;;;20.87;16.53;;;9.30;99.90;;;;;;5054200;28;20686;-86
2021/05/20 02:11:08;;;;;;;22.43;17.13;;;9.20;99.90;;;;;;5049080;28;20236;-86
2021/05/20 02:13:38;;;;;;;21.20;16.53;;;9.20;99.90;;;;;;5056200;28;20206;-85
2021/05/20 02:16:07;;;;;;;22.07;16.90;;;9.30;99.90;;;;;;5064851;28;20685;-86
2021/05/20 02:18:36;;;;;;;21.67;16.83;;;9.30;99.90;;;;;;5070968;28;20200;-85
2021/05/20 02:21:06;;;;;;;20.77;16.20;;;9.40;99.90;;;;;;5072081;28;20225;-85
2021/05/20 02:23:34;;;;;;;19.80;16.73;;;9.30;99.90;;;;;;5072145;28;20193;-84
2021/05/20 02:26:02;;;;;;;18.53;15.67;;;9.40;99.90;;;;;;5071291;28;20209;-84
2021/05/20 02:28:32;;;;;;;20.97;16.13;;;9.30;99.90;;;;;;5079948;28;20538;-84
2021/05/20 02:31:00;;;;;;;17.17;14.30;;;9.30;99.90;;;;;;5068565;28;20213;-86
2021/05/20 02:33:28;;;;;;;20.03;15.77;;;9.20;99.90;;;;;;5067003;28;20186;-85
2021/05/20 02:35:56;;;;;;;20.13;15.10;;;9.10;99.90;;;;;;5074263;28;20193;-86
2021/05/20 02:38:24;;;;;;;20.23;15.83;;;9.00;99.90;;;;;;5065127;28;20215;-85
2021/05/20 02:40:53;;;;;;;19.40;15.67;;;8.90;99.90;;;;;;5057728;28;20222;-85
2021/05/20 02:43:21;;;;;;;20.17;15.70;;;8.90;99.90;;;;;;5055710;28;20205;-86
2021/05/20 02:45:51;;;;;;;19.50;14.50;;;8.80;99.90;;;;;;5065882;28;20206;-85
2021/05/20 02:48:19;;;;;;;20.80;15.53;;;9.10;99.90;;;;;;5070130;28;20197;-87
2021/05/20 02:50:47;;;;;;;19.43;14.40;;;9.10;99.90;;;;;;5073464;28;20194;-85
2021/05/20 02:53:15;;;;;;;17.93;13.90;;;9.20;99.90;;;;;;5060433;28;20197;-85
2021/05/20 02:55:43;;;;;;;15.60;11.63;;;9.30;99.90;;;;;;5063021;28;20209;-85
2021/05/20 02:58:15;;;;;;;16.40;12.77;;;9.40;99.90;;;;;;5068086;28;20198;-85
2021/05/20 03:00:46;;;;;;;14.70;11.40;;;9.50;99.90;;;;;;5063401;28;20228;-85
2021/05/20 03:03:16;;;;;;;13.40;11.27;;;9.60;99.90;;;;;;5063620;28;20202;-85
2021/05/20 03:05:45;;;;;;;16.57;11.83;;;9.70;99.90;;;;;;5063280;28;20209;-85
2021/05/20 03:08:15;;;;;;;14.10;10.93;;;9.80;98.00;;;;;;5064514;28;20200;-86
2021/05/20 03:10:44;;;;;;;16.17;11.67;;;9.90;97.00;;;;;;5072240;28;20983;-85
2021/05/20 03:13:12;;;;;;;14.40;10.53;;;10.00;95.90;;;;;;5063063;28;20194;-85
2021/05/20 03:15:43;;;;;;;12.30;9.33;;;10.00;95.80;;;;;;5069355;28;20426;-85
2021/05/20 03:18:17;;;;;;;14.00;10.27;;;10.00;95.20;;;;;;5066093;28;20209;-85
2021/05/20 03:20:45;;;;;;;13.73;10.90;;;10.00;94.90;;;;;;5072787;28;20221;-86
2021/05/20 03:23:17;;;;;;;12.33;10.07;;;10.00;94.60;;;;;;5067386;28;20348;-85
2021/05/20 03:25:45;;;;;;;11.93;9.93;;;10.00;94.10;;;;;;5074343;28;20197;-85
2021/05/20 03:28:14;;;;;;;11.47;9.93;;;10.10;94.40;;;;;;5066769;28;20266;-85
2021/05/20 03:30:43;;;;;;;10.97;8.87;;;10.10;94.30;;;;;;5060684;28;20205;-84
2021/05/20 03:33:12;;;;;;;12.07;9.93;;;10.10;93.30;;;;;;5048705;28;20201;-83
2021/05/20 03:35:42;;;;;;;10.47;9.03;;;10.20;92.80;;;;;;5046520;28;20698;-84
2021/05/20 03:38:11;;;;;;;13.17;9.97;;;10.20;92.70;;;;;;5044843;28;20208;-88
2021/05/20 03:40:42;;;;;;;13.67;10.07;;;10.30;92.30;;;;;;5057127;28;20230;-85
2021/05/20 03:43:13;;;;;;;11.07;8.70;;;10.30;92.20;;;;;;5061582;28;20195;-84
2021/05/20 03:45:41;;;;;;;12.63;8.93;;;10.30;92.50;;;;;;5053275;28;20210;-85
2021/05/20 03:48:11;;;;;;;12.00;8.47;;;10.40;91.60;;;;;;5064453;28;20823;-87
2021/05/20 03:50:40;;;;;;;13.63;9.27;;;10.40;91.50;;;;;;5056097;28;21137;-86
2021/05/20 03:53:09;;;;;;;12.73;9.10;;;10.40;91.40;;;;;;5051176;28;20293;-85
2021/05/20 03:55:38;;;;;;;11.40;8.47;;;10.50;91.40;;;;;;5048846;28;20209;-85
2021/05/20 03:58:06;;;;;;;10.47;7.83;;;10.40;90.90;;;;;;5046712;28;20210;-85
2021/05/20 04:00:34;;;;;;;11.37;8.40;;;10.60;90.60;;;;;;5045756;28;20198;-85
2021/05/20 04:03:03;;;;;;;10.67;8.57;;;10.60;90.70;;;;;;5043771;28;20273;-86
2021/05/20 04:05:31;;;;;;;11.60;9.07;;;10.70;90.30;;;;;;5046798;28;20642;-86
2021/05/20 04:07:59;;;;;;;10.40;7.70;;;10.80;90.10;;;;;;5058511;28;20208;-85
2021/05/20 04:10:28;;;;;;;9.13;7.70;;;10.80;90.10;;;;;;5060603;28;20194;-86
2021/05/20 04:12:57;;;;;;;12.10;8.53;;;10.90;90.10;;;;;;5072596;28;20191;-85
2021/05/20 04:15:25;;;;;;;10.63;7.37;;;10.90;90.20;;;;;;5066995;28;20247;-86
2021/05/20 04:17:53;;;;;;;9.87;8.13;;;10.80;90.10;;;;;;5067086;28;20884;-85
2021/05/20 04:20:23;;;;;;;10.50;8.00;;;10.80;90.00;;;;;;5069831;28;20223;-85
2021/05/20 04:22:51;;;;;;;10.37;8.10;;;10.80;90.10;;;;;;5062204;28;20228;-85
2021/05/20 04:25:20;;;;;;;11.00;8.33;;;10.80;89.90;;;;;;5072561;28;20203;-85
2021/05/20 04:27:49;;;;;;;9.33;7.83;;;10.80;90.00;;;;;;5063824;28;20650;-85
2021/05/20 04:30:18;;;;;;;11.87;7.93;;;10.90;90.40;;;;;;5058333;28;20237;-86
2021/05/20 04:32:47;;;;;;;10.43;8.20;;;10.90;90.00;;;;;;5056466;28;20209;-85
2021/05/20 04:35:15;;;;;;;7.97;7.17;;;10.90;90.10;;;;;;5069833;28;20212;-84
2021/05/20 04:37:43;;;;;;;9.03;7.90;;;11.00;89.00;;;;;;5069790;28;20285;-85
2021/05/20 04:40:13;;;;;;;8.97;8.07;;;11.10;89.40;;;;;;5064015;28;20224;-84
2021/05/20 04:42:41;;;;;;;10.23;7.60;;;11.10;88.70;;;;;;5066573;28;20223;-84
2021/05/20 04:45:12;;;;;;;9.00;7.80;;;11.20;88.10;;;;;;5066400;28;20415;-86
2021/05/20 04:47:40;;;;;;;11.47;8.70;;;11.20;88.00;;;;;;5069513;28;20197;-83
2021/05/20 04:50:09;;;;;;;10.83;7.23;;;11.30;88.30;;;;;;5065957;28;20178;-83
2021/05/20 04:52:37;;;;;;;7.93;7.13;;;11.30;88.40;;;;;;5064283;28;20261;-82
2021/05/20 04:55:06;;;;;;;11.23;7.43;;;11.40;88.20;;;;;;5057484;28;20188;-84
2021/05/20 04:57:40;;;;;;;9.20;7.20;;;11.40;87.50;;;;;;5064852;28;20237;-85
2021/05/20 05:00:12;;;;;;;8.43;7.43;;;11.50;87.50;;;;;;5077405;28;20179;-84
2021/05/20 05:02:41;;;;;;;8.77;7.20;;;11.70;87.40;;;;;;5061239;28;20265;-83
2021/05/20 05:05:10;;;;;;;8.67;7.30;;;11.80;87.10;;;;;;5060551;28;20201;-84
2021/05/20 05:07:40;;;;;;;9.13;7.33;;;11.90;87.00;;;;;;5050668;28;20907;-85
2021/05/20 05:10:09;;;;;;;7.63;6.40;;;11.90;87.00;;;;;;5056686;28;20207;-85
2021/05/20 05:12:38;;;;;;;9.67;7.33;;;11.90;87.60;;;;;;5061736;28;20212;-85
2021/05/20 05:15:10;;;;;;;11.47;7.03;;;12.00;87.40;;;;;;5058892;28;20217;-85
2021/05/20 05:17:39;;;;;;;9.63;7.67;;;12.10;86.80;;;;;;5055516;28;20239;-84
2021/05/20 05:20:16;;;;;;;9.90;7.20;;;12.00;85.60;;;;;;5072047;28;20190;-85
2021/05/20 05:22:45;;;;;;;8.17;6.83;;;12.10;85.60;;;;;;5069770;28;20225;-85
2021/05/20 05:25:13;;;;;;;9.47;6.60;;;12.20;85.30;;;;;;5067934;28;20249;-86
2021/05/20 05:27:41;;;;;;;8.57;6.67;;;12.20;85.00;;;;;;5062946;28;20212;-84
2021/05/20 05:30:11;;;;;;;8.50;7.00;;;12.20;85.10;;;;;;5068038;28;20185;-83
2021/05/20 05:32:40;;;;;;;8.93;6.60;;;12.30;84.70;;;;;;5054089;28;20198;-82
2021/05/20 05:35:08;;;;;;;8.93;6.67;;;12.30;84.90;;;;;;5061849;28;20186;-85
2021/05/20 05:37:37;;;;;;;8.00;6.70;;;12.30;84.60;;;;;;5062031;28;20202;-84
2021/05/20 05:40:06;;;;;;;7.90;7.00;;;12.40;84.50;;;;;;5057686;28;20210;-80
2021/05/20 05:42:34;;;;;;;8.20;6.17;;;12.50;84.10;;;;;;5042175;28;20265;-81
2021/05/20 05:45:03;;;;;;;11.37;6.80;;;12.40;83.60;;;;;;5050124;28;20233;-85
2021/05/20 05:47:33;;;;;;;8.83;5.70;;;12.50;84.00;;;;;;5049807;28;20615;-83
2021/05/20 05:50:06;;;;;;;8.83;6.80;;;12.60;83.80;;;;;;5056711;28;20202;-84
2021/05/20 05:52:34;;;;;;;6.20;5.57;;;12.50;83.80;;;;;;5057732;28;20195;-84
2021/05/20 05:55:03;;;;;;;6.37;5.73;;;12.50;83.70;;;;;;5058890;28;20232;-82
2021/05/20 05:57:31;;;;;;;9.23;6.30;;;12.40;83.50;;;;;;5043224;28;20207;-82
2021/05/20 05:59:59;;;;;;;9.43;6.13;;;12.50;83.70;;;;;;5031678;28;20346;-83
2021/05/20 06:02:37;;;;;;;6.87;5.50;;;12.50;83.80;;;;;;5030905;28;20284;-87
2021/05/20 06:05:11;;;;;;;6.70;5.63;;;12.60;83.50;;;;;;5038106;28;20206;-82
2021/05/20 06:07:43;;;;;;;6.63;4.93;;;12.60;83.20;;;;;;5040616;28;20304;-84
2021/05/20 06:10:12;;;;;;;11.37;5.70;;;12.70;83.00;;;;;;5039104;28;20260;-85
2021/05/20 06:12:41;;;;;;;6.97;5.63;;;12.80;83.10;;;;;;5048986;28;20210;-85
2021/05/20 06:15:10;;;;;;;7.40;5.70;;;12.90;82.80;;;;;;5058735;28;20408;-84
2021/05/20 06:17:39;;;;;;;6.80;5.40;;;12.90;82.60;;;;;;5042315;28;20206;-83
2021/05/20 06:20:09;;;;;;;7.77;4.73;;;13.00;82.70;;;;;;5048445;28;20988;-84
2021/05/20 06:22:38;;;;;;;6.57;5.10;;;13.00;82.70;;;;;;5051468;28;20230;-86
2021/05/20 06:25:08;;;;;;;8.43;4.80;;;13.00;82.50;;;;;;5042575;28;20693;-85
2021/05/20 06:27:36;;;;;;;6.47;4.83;;;13.20;82.40;;;;;;5043109;28;20317;-85
2021/05/20 06:30:05;;;;;;;8.53;3.43;;;13.10;82.00;;;;;;5049695;28;20460;-83
2021/05/20 06:32:37;;;;;;;7.03;4.40;;;13.20;81.60;;;;;;5043455;28;20505;-83
2021/05/20 06:35:07;;;;;;;4.70;3.97;;;13.20;82.50;;;;;;5036626;28;20213;-84
2021/05/20 06:37:36;;;;;;;4.33;3.93;;;13.30;81.40;;;;;;5034432;28;21738;-84
2021/05/20 06:40:06;;;;;;;5.57;3.93;;;13.40;81.50;;;;;;5029490;28;20210;-85
2021/05/20 06:42:34;;;;;;;5.43;4.13;;;13.70;82.20;;;;;;5030259;28;20239;-82
2021/05/20 06:45:03;;;;;;;4.00;3.07;;;14.00;81.70;;;;;;5015954;28;20218;-83
2021/05/20 06:47:31;;;;;;;3.87;3.50;;;14.40;81.40;;;;;;5025950;28;20302;-84
2021/05/20 06:49:59;;;;;;;3.47;3.17;;;14.50;80.10;;;;;;5026652;28;20793;-85
2021/05/20 06:52:28;;;;;;;4.40;3.20;;;14.60;79.90;;;;;;5023234;28;20205;-82
2021/05/20 06:54:56;;;;;;;3.90;2.80;;;14.60;79.90;;;;;;5019974;28;20202;-85
2021/05/20 06:57:25;;;;;;;3.30;3.00;;;14.50;79.40;;;;;;5023083;28;20228;-85
2021/05/20 06:59:57;;;;;;;5.40;3.40;;;14.40;78.80;;;;;;5037883;28;20206;-86
2021/05/20 07:02:26;;;;;;;4.53;3.53;;;14.60;79.70;;;;;;5026161;28;20371;-83
2021/05/20 07:04:54;;;;;;;5.27;2.87;;;14.70;79.60;;;;;;5020860;28;20387;-82
2021/05/20 07:07:31;;;;;;;2.93;2.67;;;14.70;78.80;;;;;;5028528;28;20609;-81
2021/05/20 07:09:59;;;;;;;3.40;2.13;;;14.70;79.20;;;;;;5028765;28;20225;-84
2021/05/20 07:12:28;;;;;;;2.73;2.07;;;14.60;78.00;;;;;;5023454;28;20225;-83
2021/05/20 07:14:58;;;;;;;2.10;1.90;;;14.50;77.50;;;;;;5030650;28;20461;-85
2021/05/20 07:17:26;;;;;;;2.90;2.60;;;14.40;77.70;;;;;;5032522;28;20267;-83
2021/05/20 07:19:56;;;;;;;3.23;2.33;;;14.40;77.80;;;;;;5032085;28;20373;-82
2021/05/20 07:22:24;;;;;;;2.73;2.47;;;14.60;77.10;;;;;;5031909;28;20600;-82
2021/05/20 07:24:53;;;;;;;3.47;2.33;;;14.80;77.70;;;;;;5029759;28;20220;-82
2021/05/20 07:27:21;;;;;;;2.33;2.17;;;14.90;76.60;;;;;;5027942;28;20202;-82
2021/05/20 07:29:50;;;;;;;3.43;2.57;;;14.90;76.20;;;;;;5031552;28;20200;-84
2021/05/20 07:32:20;;;;;;;4.43;2.83;;;14.80;76.50;;;;;;5046980;28;20203;-81
2021/05/20 07:34:48;;;;;;;3.17;2.53;;;15.00;77.40;;;;;;5052696;28;20205;-84
2021/05/20 07:37:16;;;;;;;2.80;2.37;;;15.00;76.30;;;;;;5044741;28;20343;-82
2021/05/20 07:39:44;;;;;;;2.10;2.00;;;15.00;76.60;;;;;;5042348;28;20213;-84
2021/05/20 07:42:13;;;;;;;3.50;2.27;;;15.00;75.70;;;;;;5051783;28;20232;-85
2021/05/20 07:44:42;;;;;;;2.60;1.90;;;15.00;75.30;;;;;;5033233;28;20496;-85
2021/05/20 07:47:10;;;;;;;5.50;2.50;;;15.00;76.10;;;;;;5033460;28;20203;-87
2021/05/20 07:49:38;;;;;;;2.13;1.93;;;15.20;75.60;;;;;;5019723;28;20206;-85
2021/05/20 07:52:07;;;;;;;2.60;2.30;;;15.20;75.80;;;;;;5021272;28;20217;-86
2021/05/20 07:54:35;;;;;;;2.53;2.27;;;15.20;75.20;;;;;;5026030;28;20896;-83
2021/05/20 07:57:03;;;;;;;2.90;2.10;;;15.40;75.90;;;;;;5028636;28;20206;-86
2021/05/20 07:59:33;;;;;;;2.40;2.20;;;15.40;74.50;;;;;;5019171;28;20259;-87
2021/05/20 08:02:09;;;;;;;2.57;2.10;;;15.30;75.00;;;;;;5027611;28;20202;-83
2021/05/20 08:04:38;;;;;;;2.40;2.20;;;15.20;75.00;;;;;;5033928;28;20232;-83
2021/05/20 08:07:28;;;;;;;3.87;2.33;;;15.40;74.90;;;;;;5037659;28;20190;-85
2021/05/20 08:10:08;;;;;;;2.60;2.03;;;15.50;74.30;;;;;;5029740;28;20271;-83
2021/05/20 08:12:36;;;;;;;3.43;2.10;;;15.40;74.80;;;;;;5028071;28;20279;-82
2021/05/20 08:15:06;;;;;;;3.13;2.10;;;15.60;74.70;;;;;;5028311;28;20680;-83
2021/05/20 08:17:35;;;;;;;2.10;1.90;;;15.60;74.50;;;;;;5018646;28;20205;-83
2021/05/20 08:20:04;;;;;;;7.40;2.27;;;15.60;73.90;;;;;;5029661;28;20202;-85
2021/05/20 08:22:37;;;;;;;2.40;2.20;;;15.70;74.00;;;;;;5028649;28;20255;-85
2021/05/20 08:25:08;;;;;;;2.73;2.47;;;16.00;74.00;;;;;;5031324;28;20518;-85
2021/05/20 08:27:36;;;;;;;3.83;2.13;;;16.00;73.80;;;;;;5038131;28;20229;-84
2021/05/20 08:30:08;;;;;;;2.50;2.27;;;16.10;74.20;;;;;;5033365;28;20201;-84
2021/05/20 08:32:37;;;;;;;2.07;1.67;;;16.00;73.10;;;;;;5032609;28;20228;-83
2021/05/20 08:35:06;;;;;;;3.87;2.20;;;15.50;72.50;;;;;;5036851;28;20219;-83
2021/05/20 08:37:35;;;;;;;2.20;2.00;;;15.50;72.80;;;;;;5035507;28;20213;-85
2021/05/20 08:40:04;;;;;;;2.50;2.30;;;15.90;73.80;;;;;;5050542;28;20415;-83
2021/05/20 08:42:33;;;;;;;2.00;1.80;;;16.20;73.10;;;;;;5034970;28;20234;-86
2021/05/20 08:45:15;;;;;;;2.87;2.30;;;16.30;73.10;;;;;;5037649;28;20218;-84
2021/05/20 08:47:46;;;;;;;2.90;1.80;;;16.30;73.20;;;;;;5040149;28;20320;-85
2021/05/20 08:50:17;;;;;;;2.50;2.30;;;16.20;72.50;;;;;;5030069;28;20205;-84
2021/05/20 08:52:46;;;;;;;3.10;2.10;;;16.30;72.60;;;;;;5033719;28;20233;-84
2021/05/20 08:55:17;;;;;;;2.10;2.00;;;16.30;71.80;;;;;;5032882;28;20554;-86
2021/05/20 08:57:46;;;;;;;2.37;2.10;;;16.50;71.20;;;;;;5026938;28;20310;-87
2021/05/20 09:00:19;;;;;;;2.43;1.90;;;16.30;71.40;;;;;;5033740;28;20210;-87
2021/05/20 09:02:48;;;;;;;2.00;1.90;;;16.20;71.40;;;;;;5044817;28;20233;-85
2021/05/20 09:05:20;;;;;;;3.07;2.07;;;16.20;72.40;;;;;;5045324;28;20263;-84
2021/05/20 09:07:52;;;;;;;1.70;1.60;;;16.30;71.20;;;;;;5021031;28;20236;-86
2021/05/20 09:10:22;;;;;;;2.00;1.70;;;16.20;70.00;;;;;;5030168;28;20213;-85
2021/05/20 09:12:52;;;;;;;2.20;2.00;;;16.30;70.90;;;;;;5021837;28;20553;-84
2021/05/20 09:15:25;;;;;;;2.30;2.00;;;16.30;70.70;;;;;;5033302;28;20294;-84
2021/05/20 09:17:54;;;;;;;2.70;2.37;;;16.30;71.00;;;;;;5030096;28;20209;-84
2021/05/20 09:20:26;;;;;;;3.00;2.43;;;16.60;71.50;;;;;;5040427;28;20216;-86
2021/05/20 09:23:04;;;;;;;5.77;2.10;;;16.70;71.20;;;;;;5036311;28;20979;-87
2021/05/20 09:25:35;;;;;;;2.83;2.00;;;16.60;71.00;;;;;;5030888;28;20207;-83
2021/05/20 09:28:04;;;;;;;2.30;2.00;;;16.50;70.60;;;;;;5013567;28;20214;-86
2021/05/20 09:30:35;;;;;;;2.40;2.20;;;16.80;70.80;;;;;;5041323;28;20216;-83
2021/05/20 09:33:07;;;;;;;2.67;1.87;;;17.00;70.00;;;;;;5043865;28;20348;-85
2021/05/20 09:35:37;;;;;;;4.13;1.63;;;16.90;69.90;;;;;;5057899;28;20452;-85
2021/05/20 09:38:10;;;;;;;3.30;1.90;;;16.80;69.00;;;;;;5049309;28;20206;-82
2021/05/20 09:40:40;;;;;;;1.50;1.40;;;16.60;67.90;;;;;;5041914;28;20232;-83
2021/05/20 09:43:18;;;;;;;1.70;1.60;;;16.50;69.00;;;;;;5023759;28;20222;-81
2021/05/20 09:45:50;;;;;;;2.30;2.10;;;16.80;69.20;;;;;;5026054;28;20314;-82
2021/05/20 09:48:18;;;;;;;2.13;1.93;;;17.00;69.40;;;;;;5043164;28;20383;-82
2021/05/20 09:50:48;;;;;;;2.13;2.00;;;16.80;68.90;;;;;;5054459;28;20186;-86
2021/05/20 09:53:18;;;;;;;2.17;1.77;;;16.60;70.00;;;;;;5038077;28;20202;-83
2021/05/20 09:55:53;;;;;;;3.70;1.80;;;16.40;69.10;;;;;;5041565;28;20214;-80
2021/05/20 09:58:23;;;;;;;2.17;1.97;;;16.50;69.90;;;;;;5019481;28;20807;-84
2021/05/20 10:00:53;;;;;;;2.87;2.10;;;16.60;69.40;;;;;;5030021;28;20271;-83
2021/05/20 10:03:23;;;;;;;2.40;2.20;;;16.70;68.20;;;;;;5036131;28;21960;-83
2021/05/20 10:05:53;;;;;;;2.30;2.10;;;16.90;68.30;;;;;;5050105;28;20189;-82
2021/05/20 10:08:22;;;;;;;3.53;1.67;;;17.00;68.30;;;;;;5026434;28;20223;-81
2021/05/20 10:10:52;;;;;;;1.83;1.70;;;17.00;68.10;;;;;;5028468;28;20236;-81
2021/05/20 10:13:22;;;;;;;1.57;1.20;;;16.80;66.80;;;;;;5033730;28;20422;-86
2021/05/20 10:15:52;;;;;;;1.80;1.50;;;16.50;66.70;;;;;;5041398;28;20242;-86
2021/05/20 10:18:22;;;;;;;2.10;1.73;;;16.60;67.10;;;;;;5030563;28;20763;-82
2021/05/20 10:20:53;;;;;;;2.57;1.60;;;16.70;66.90;;;;;;5026759;28;20226;-84
2021/05/20 10:23:22;;;;;;;1.93;1.53;;;16.60;67.50;;;;;;5010068;28;20226;-82
2021/05/20 10:25:53;;;;;;;2.00;1.50;;;16.70;66.50;;;;;;5026957;28;20210;-84
2021/05/20 10:28:22;;;;;;;1.50;1.40;;;16.80;65.80;;;;;;5022000;28;20880;-83
2021/05/20 10:30:53;;;;;;;1.43;1.33;;;16.70;65.30;;;;;;5026579;28;20590;-81
2021/05/20 10:33:26;;;;;;;2.00;1.90;;;16.60;65.50;;;;;;5029088;28;20212;-83
2021/05/20 10:35:56;;;;;;;1.37;1.17;;;16.50;66.20;;;;;;5032488;28;20206;-84
2021/05/20 10:38:37;;;;;;;60.67;11.47;;;16.50;66.00;;;;;;5008822;28;20647;-83
2021/05/20 10:41:10;;;;;;;5.10;1.83;;;16.60;66.90;;;;;;5005568;28;20692;-83
2021/05/20 10:43:39;;;;;;;3.23;1.63;;;16.50;67.10;;;;;;5003050;28;20240;-81
2021/05/20 10:46:09;;;;;;;2.27;1.80;;;16.70;67.00;;;;;;5015171;28;20212;-85
2021/05/20 10:48:38;;;;;;;2.00;1.80;;;16.80;66.50;;;;;;5006554;28;20659;-84
2021/05/20 10:51:13;;;;;;;2.40;1.97;;;17.10;65.90;;;;;;5008603;28;20220;-83
2021/05/20 10:53:50;;;;;;;2.97;1.70;;;17.30;66.00;;;;;;5007411;28;20244;-84
2021/05/20 10:56:54;;;;;;;2.93;1.87;;;17.40;66.90;;;;;;5014945;28;20227;-85
2021/05/20 10:59:46;;;;;;;3.50;1.90;;;17.60;66.00;;;;;;5017558;28;20235;-83
2021/05/20 11:02:54;;;;;;;1.60;1.50;;;17.60;66.10;;;;;;5014753;28;20221;-81
2021/05/20 11:05:54;;;;;;;2.40;2.20;;;17.50;65.70;;;;;;5018694;28;20237;-84
2021/05/20 11:08:53;;;;;;;2.43;1.73;;;17.10;65.70;;;;;;5013167;28;20547;-85
2021/05/20 11:11:23;;;;;;;1.87;1.70;;;17.10;66.80;;;;;;5005708;28;20214;-87
2021/05/20 11:13:51;;;;;;;3.80;2.00;;;17.50;67.00;;;;;;5026671;28;20208;-84
2021/05/20 11:16:21;;;;;;;2.10;1.90;;;17.80;67.00;;;;;;5021036;28;20320;-85
2021/05/20 11:18:52;;;;;;;1.73;1.50;;;17.90;66.40;;;;;;5020976;28;20350;-83
2021/05/20 11:21:20;;;;;;;1.67;1.23;;;17.90;64.70;;;;;;5025393;28;20758;-82
2021/05/20 11:23:48;;;;;;;3.20;1.53;;;17.70;64.20;;;;;;5016106;28;20683;-81
2021/05/20 11:26:23;;;;;;;4.73;2.27;;;17.50;64.60;;;;;;5024130;28;20210;-84
2021/05/20 11:29:02;;;;;;;2.23;2.03;;;17.50;65.40;;;;;;5010333;28;20279;-84
2021/05/20 11:31:31;;;;;;;2.67;2.13;;;17.70;64.90;;;;;;5026556;28;20214;-81
2021/05/20 11:34:35;;;;;;;2.67;2.00;;;17.40;64.80;;;;;;5027020;28;20216;-81
2021/05/20 11:37:03;;;;;;;1.70;1.57;;;16.90;64.60;;;;;;5040634;28;20241;-84
2021/05/20 11:39:32;;;;;;;1.90;1.80;;;16.90;65.20;;;;;;5023520;28;20785;-85
2021/05/20 11:42:04;;;;;;;2.23;1.93;;;17.00;64.80;;;;;;5020247;28;20218;-85
2021/05/20 11:44:32;;;;;;;4.00;2.00;;;17.10;64.60;;;;;;5020184;28;20228;-87
2021/05/20 11:47:06;;;;;;;4.43;2.10;;;17.20;64.40;;;;;;5019652;28;20210;-83
2021/05/20 11:49:36;;;;;;;2.57;2.00;;;17.40;65.10;;;;;;5017985;28;20226;-84
2021/05/20 11:52:07;;;;;;;2.20;2.00;;;17.60;64.10;;;;;;5014603;28;20657;-85
2021/05/20 11:54:37;;;;;;;1.90;1.80;;;17.70;64.40;;;;;;5016299;28;20206;-86
2021/05/20 11:57:07;;;;;;;1.90;1.80;;;17.60;64.10;;;;;;5015805;28;20202;-84
2021/05/20 11:59:44;;;;;;;2.30;1.93;;;17.60;64.80;;;;;;5020523;28;20230;-80
2021/05/20 12:02:14;;;;;;;1.93;1.80;;;17.60;64.80;;;;;;5026796;28;20528;-82
2021/05/20 12:04:44;;;;;;;2.37;1.97;;;17.60;64.80;;;;;;5044711;28;20280;-84
2021/05/20 12:07:21;;;;;;;2.30;2.00;;;17.40;64.70;;;;;;5036141;28;20186;-82
2021/05/20 12:09:52;;;;;;;1.80;1.70;;;17.10;64.70;;;;;;5033368;28;20202;-80
2021/05/20 12:12:24;;;;;;;2.10;1.90;;;17.10;64.30;;;;;;5018476;28;20272;-85
2021/05/20 12:14:54;;;;;;;2.43;2.13;;;17.20;64.30;;;;;;5018898;28;20753;-86
2021/05/20 12:17:27;;;;;;;2.83;1.70;;;17.50;64.60;;;;;;5017525;28;20691;-82
2021/05/20 12:19:59;;;;;;;3.60;2.13;;;17.90;64.20;;;;;;5008666;28;20203;-86
2021/05/20 12:22:29;;;;;;;1.93;1.80;;;18.20;64.60;;;;;;5017279;28;20566;-87
2021/05/20 12:25:01;;;;;;;5.13;1.93;;;18.10;64.10;;;;;;5013219;28;20229;-85
2021/05/20 12:27:31;;;;;;;2.33;1.97;;;17.80;63.60;;;;;;5024558;28;20233;-85
2021/05/20 12:30:00;;;;;;;1.97;1.80;;;17.50;63.20;;;;;;5023635;28;20198;-82
2021/05/20 12:32:31;;;;;;;2.33;1.80;;;17.30;62.90;;;;;;5029039;28;20545;-86
2021/05/20 12:35:20;;;;;;;1.90;1.80;;;17.40;63.10;;;;;;5030877;28;20355;-82
2021/05/20 12:37:53;;;;;;;1.70;1.60;;;18.00;63.30;;;;;;5035032;28;20213;-82
2021/05/20 12:40:27;;;;;;;3.33;1.60;;;18.30;62.90;;;;;;5029692;28;20272;-80
2021/05/20 12:43:19;;;;;;;3.17;1.73;;;18.50;61.70;;;;;;5027869;28;20603;-86
2021/05/20 12:45:54;;;;;;;2.40;1.73;;;18.40;61.70;;;;;;5037470;28;20791;-84
2021/05/20 12:48:29;;;;;;;1.97;1.30;;;18.50;61.10;;;;;;5039015;28;20879;-84
2021/05/20 12:51:01;;;;;;;1.63;1.53;;;18.60;61.60;;;;;;5042457;28;20209;-84
2021/05/20 12:53:35;;;;;;;5.10;1.90;;;18.70;61.00;;;;;;5040780;28;20680;-82
2021/05/20 12:56:06;;;;;;;1.97;1.60;;;18.90;60.80;;;;;;5043713;28;20282;-83
2021/05/20 12:58:51;;;;;;;2.17;1.50;;;19.00;60.60;;;;;;5051161;28;20198;-83
2021/05/20 13:01:21;;;;;;;2.10;1.87;;;19.20;60.70;;;;;;5035646;28;20648;-81